createdAt,value
2023-11-30T00:00:33.332Z,12.83
2023-11-30T00:03:05.554Z,13.07
2023-11-30T00:05:33.599Z,12.63
2023-11-30T00:08:01.568Z,12.87
2023-11-30T00:10:29.579Z,13.00
2023-11-30T00:12:57.773Z,13.37
2023-11-30T00:15:25.841Z,13.30
2023-11-30T00:17:53.921Z,13.73
2023-11-30T00:20:23.422Z,13.33
2023-11-30T00:22:51.415Z,14.13
2023-11-30T00:25:19.444Z,13.80
2023-11-30T00:27:47.397Z,14.13
2023-11-30T00:30:16.259Z,14.67
2023-11-30T00:32:44.270Z,14.83
2023-11-30T00:35:12.269Z,14.10
2023-11-30T00:37:41.619Z,14.10
2023-11-30T00:40:11.128Z,13.97
2023-11-30T00:42:39.181Z,13.50
2023-11-30T00:45:08.669Z,13.03
2023-11-30T00:47:36.767Z,13.07
2023-11-30T00:50:05.543Z,12.60
2023-11-30T00:52:33.560Z,12.90
2023-11-30T00:55:03.061Z,12.13
2023-11-30T00:57:31.142Z,12.40
2023-11-30T01:00:01.580Z,12.20
2023-11-30T01:02:29.736Z,12.40
2023-11-30T01:04:57.778Z,11.37
2023-11-30T01:07:25.864Z,11.50
2023-11-30T01:09:53.835Z,10.40
2023-11-30T01:12:23.313Z,10.93
2023-11-30T01:14:51.328Z,11.27
2023-11-30T01:17:19.375Z,11.17
2023-11-30T01:19:47.406Z,11.10
2023-11-30T01:22:15.364Z,10.17
2023-11-30T01:24:43.466Z,10.23
2023-11-30T01:27:11.521Z,9.77
2023-11-30T01:29:40.921Z,10.17
2023-11-30T01:32:08.920Z,9.70
2023-11-30T01:34:36.903Z,9.83
2023-11-30T01:37:04.907Z,9.17
2023-11-30T01:39:32.981Z,8.73
2023-11-30T01:42:02.750Z,8.77
2023-11-30T01:44:31.913Z,9.40
2023-11-30T01:47:01.736Z,9.07
2023-11-30T01:49:29.779Z,8.40
2023-11-30T01:51:57.826Z,7.60
2023-11-30T01:54:25.832Z,7.23
2023-11-30T01:56:53.872Z,6.53
2023-11-30T01:59:21.904Z,6.73
2023-11-30T02:01:50.017Z,6.57
2023-11-30T02:04:19.478Z,6.03
2023-11-30T02:06:48.210Z,6.43
2023-11-30T02:09:16.359Z,5.60
2023-11-30T02:11:44.427Z,5.70
2023-11-30T02:14:12.376Z,6.13
2023-11-30T02:16:40.599Z,6.40
2023-11-30T02:19:08.616Z,5.37
2023-11-30T02:21:37.950Z,5.83
2023-11-30T02:24:08.406Z,5.70
2023-11-30T02:26:36.613Z,6.20
2023-11-30T02:29:04.689Z,6.13
2023-11-30T02:31:33.549Z,6.07
2023-11-30T02:34:01.752Z,5.90
2023-11-30T02:36:29.918Z,5.30
2023-11-30T02:38:58.003Z,5.83
2023-11-30T02:41:27.425Z,5.97
2023-11-30T02:43:55.416Z,5.50
2023-11-30T02:46:23.436Z,5.60
2023-11-30T02:48:51.532Z,5.17
2023-11-30T02:51:19.686Z,5.90
2023-11-30T02:53:47.718Z,5.87
2023-11-30T02:56:15.719Z,5.67
2023-11-30T02:58:45.052Z,6.30
2023-11-30T03:01:13.149Z,7.07
2023-11-30T03:03:41.250Z,6.60
2023-11-30T03:06:12.780Z,6.60
2023-11-30T03:08:40.822Z,6.40
2023-11-30T03:11:08.868Z,6.40
2023-11-30T03:13:36.956Z,7.00
2023-11-30T03:16:07.143Z,7.17
2023-11-30T03:18:35.230Z,7.53
2023-11-30T03:21:03.275Z,8.00
2023-11-30T03:23:31.264Z,7.47
2023-11-30T03:25:59.241Z,7.67
2023-11-30T03:28:29.119Z,8.13
2023-11-30T03:30:57.135Z,8.53
2023-11-30T03:33:26.543Z,6.77
2023-11-30T03:35:55.291Z,7.90
2023-11-30T03:38:23.258Z,7.63
2023-11-30T03:40:51.397Z,7.60
2023-11-30T03:43:19.482Z,7.20
2023-11-30T03:45:47.561Z,7.20
2023-11-30T03:48:15.661Z,7.43
2023-11-30T03:50:45.302Z,6.73
2023-11-30T03:53:13.285Z,6.97
2023-11-30T03:55:41.481Z,7.23
2023-11-30T03:58:09.454Z,6.27
2023-11-30T04:00:38.834Z,7.30
2023-11-30T04:03:06.919Z,6.60
2023-11-30T04:05:34.872Z,7.40
2023-11-30T04:08:04.521Z,7.40
2023-11-30T04:10:32.501Z,7.13
2023-11-30T04:13:00.707Z,7.90
2023-11-30T04:15:28.777Z,8.13
2023-11-30T04:17:57.669Z,7.50
2023-11-30T04:20:25.667Z,7.70
2023-11-30T04:22:53.687Z,5.43
2023-11-30T04:25:23.653Z,5.93
2023-11-30T04:27:51.650Z,7.87
2023-11-30T04:30:19.872Z,6.67
2023-11-30T04:32:47.922Z,6.87
2023-11-30T04:35:16.216Z,8.13
2023-11-30T04:37:44.194Z,8.27
2023-11-30T04:40:13.849Z,7.43
2023-11-30T04:42:43.239Z,8.90
2023-11-30T04:45:11.475Z,7.27
2023-11-30T04:47:40.184Z,7.90
2023-11-30T04:50:09.452Z,8.07
2023-11-30T04:52:37.434Z,8.43
2023-11-30T04:55:06.090Z,7.07
2023-11-30T04:57:34.114Z,8.60
2023-11-30T05:00:06.584Z,6.43
2023-11-30T05:02:35.346Z,8.73
2023-11-30T05:05:04.056Z,7.73
2023-11-30T05:07:32.198Z,7.93
2023-11-30T05:10:00.247Z,6.57
2023-11-30T05:12:28.258Z,5.23
2023-11-30T05:14:56.599Z,6.47
2023-11-30T05:17:26.045Z,9.33
2023-11-30T05:19:54.081Z,7.10
2023-11-30T05:22:22.057Z,8.93
2023-11-30T05:24:51.380Z,6.77
2023-11-30T05:27:19.378Z,8.20
2023-11-30T05:29:47.396Z,8.37
2023-11-30T05:32:15.616Z,5.37
2023-11-30T05:34:45.006Z,6.90
2023-11-30T05:37:13.022Z,6.37
2023-11-30T05:39:42.235Z,5.50
2023-11-30T05:42:11.307Z,5.77
2023-11-30T05:44:39.358Z,6.13
2023-11-30T05:47:07.829Z,7.70
2023-11-30T05:49:36.107Z,4.30
2023-11-30T05:52:05.708Z,8.20
2023-11-30T05:54:34.069Z,9.53
2023-11-30T05:57:02.223Z,8.00
2023-11-30T05:59:30.270Z,9.70
2023-11-30T06:01:58.631Z,7.20
2023-11-30T06:04:26.775Z,7.90
2023-11-30T06:06:54.855Z,7.43
2023-11-30T06:09:24.274Z,7.10
2023-11-30T06:11:53.651Z,6.73
2023-11-30T06:14:21.728Z,5.23
2023-11-30T06:16:49.729Z,4.57
2023-11-30T06:19:17.736Z,4.97
2023-11-30T06:21:45.959Z,4.03
2023-11-30T06:24:14.078Z,4.03
2023-11-30T06:26:44.252Z,4.50
2023-11-30T06:29:12.413Z,5.37
2023-11-30T06:31:40.577Z,4.70
2023-11-30T06:34:08.586Z,5.47
2023-11-30T06:36:37.017Z,5.23
2023-11-30T06:39:06.155Z,5.50
2023-11-30T06:41:34.252Z,5.03
2023-11-30T06:44:03.981Z,5.20
2023-11-30T06:46:31.982Z,5.00
2023-11-30T06:48:59.886Z,5.50
2023-11-30T06:51:27.965Z,4.87
2023-11-30T06:53:54.960Z,5.70
2023-11-30T06:56:22.978Z,5.60
2023-11-30T06:58:51.083Z,5.63
2023-11-30T07:01:20.427Z,5.17
2023-11-30T07:03:48.451Z,4.63
2023-11-30T07:06:16.662Z,4.47
2023-11-30T07:08:44.821Z,4.67
2023-11-30T07:11:15.719Z,4.47
2023-11-30T07:13:43.865Z,4.70
2023-11-30T07:16:12.825Z,4.97
2023-11-30T07:18:42.791Z,4.83
2023-11-30T07:21:14.653Z,4.07
2023-11-30T07:23:43.377Z,5.30
2023-11-30T07:26:14.583Z,4.47
2023-11-30T07:28:42.759Z,4.20
2023-11-30T07:31:10.810Z,4.03
2023-11-30T07:33:39.788Z,5.27
2023-11-30T07:36:13.520Z,5.80
2023-11-30T07:38:42.302Z,6.03
2023-11-30T07:41:10.437Z,6.27
2023-11-30T07:43:38.449Z,7.17
2023-11-30T07:46:07.115Z,5.50
2023-11-30T07:48:35.137Z,6.47
2023-11-30T07:51:03.165Z,7.33
2023-11-30T07:53:32.551Z,7.53
2023-11-30T07:56:00.783Z,5.93
2023-11-30T07:58:28.752Z,7.03
2023-11-30T08:00:58.090Z,5.50
2023-11-30T08:03:26.370Z,6.33
2023-11-30T08:05:54.922Z,6.07
2023-11-30T08:08:22.967Z,6.57
2023-11-30T08:10:52.605Z,5.77
2023-11-30T08:13:21.171Z,6.73
2023-11-30T08:15:49.745Z,5.53
2023-11-30T08:18:19.717Z,4.80
2023-11-30T08:20:49.380Z,5.10
2023-11-30T08:23:18.039Z,3.87
2023-11-30T08:25:46.027Z,4.83
2023-11-30T08:28:17.980Z,5.13
2023-11-30T08:30:47.078Z,6.63
2023-11-30T08:33:15.397Z,4.97
2023-11-30T08:35:43.619Z,4.90
2023-11-30T08:38:11.639Z,4.03
2023-11-30T08:40:39.670Z,4.20
2023-11-30T08:43:07.804Z,4.20
2023-11-30T08:45:37.798Z,3.57
2023-11-30T08:48:06.695Z,5.70
2023-11-30T08:50:34.879Z,5.83
2023-11-30T08:53:03.892Z,6.73
2023-11-30T08:55:31.880Z,4.30
2023-11-30T08:57:59.924Z,4.67
2023-11-30T09:00:27.949Z,6.60
2023-11-30T09:02:57.633Z,7.20
2023-11-30T09:05:25.899Z,5.23
2023-11-30T09:07:53.820Z,3.23
2023-11-30T09:10:21.880Z,6.20
2023-11-30T09:12:50.015Z,6.50
2023-11-30T09:15:19.467Z,5.03
2023-11-30T09:17:49.484Z,4.37
2023-11-30T09:20:21.356Z,3.83
2023-11-30T09:22:49.751Z,5.40
2023-11-30T09:25:18.056Z,6.03
2023-11-30T09:27:47.658Z,5.43
2023-11-30T09:30:16.763Z,5.50
2023-11-30T09:32:44.972Z,4.83
2023-11-30T09:35:14.467Z,4.67
2023-11-30T09:37:43.879Z,4.20
2023-11-30T09:40:14.783Z,4.60
2023-11-30T09:42:42.837Z,4.97
2023-11-30T09:45:11.564Z,3.30
2023-11-30T09:47:39.745Z,4.00
2023-11-30T09:50:08.822Z,4.80
2023-11-30T09:52:38.586Z,2.73
2023-11-30T09:55:12.418Z,3.60
2023-11-30T09:57:40.897Z,5.03
2023-11-30T10:00:11.632Z,5.87
2023-11-30T10:02:39.857Z,3.43
2023-11-30T10:05:10.563Z,2.60
2023-11-30T10:07:40.591Z,6.10
2023-11-30T10:10:10.631Z,5.70
2023-11-30T10:12:38.859Z,4.73
2023-11-30T10:15:07.856Z,3.73
2023-11-30T10:17:37.794Z,4.40
2023-11-30T10:20:06.888Z,2.70
2023-11-30T10:22:35.039Z,4.43
2023-11-30T10:25:03.105Z,4.50
2023-11-30T10:27:32.506Z,4.13
2023-11-30T10:30:02.392Z,4.80
2023-11-30T10:32:31.930Z,4.07
2023-11-30T10:35:00.064Z,3.17
2023-11-30T10:37:28.730Z,3.23
2023-11-30T10:40:00.867Z,4.50
2023-11-30T10:42:29.071Z,4.17
2023-11-30T10:44:59.302Z,5.13
2023-11-30T10:47:27.306Z,3.93
2023-11-30T10:49:55.464Z,4.00
2023-11-30T10:52:24.218Z,3.97
2023-11-30T10:54:55.694Z,4.27
2023-11-30T10:57:23.794Z,5.70
2023-11-30T10:59:59.885Z,5.80
2023-11-30T11:02:37.327Z,4.60
2023-11-30T11:05:10.286Z,5.10
2023-11-30T11:07:38.478Z,4.03
2023-11-30T11:10:08.305Z,4.60
2023-11-30T11:12:38.973Z,4.10
2023-11-30T11:15:14.327Z,5.43
2023-11-30T11:17:47.916Z,4.90
2023-11-30T11:20:26.059Z,5.93
2023-11-30T11:22:55.889Z,4.90
2023-11-30T11:25:24.004Z,4.57
2023-11-30T11:27:52.687Z,6.07
2023-11-30T11:30:27.560Z,4.07
2023-11-30T11:32:58.315Z,2.80
2023-11-30T11:35:27.779Z,4.57
2023-11-30T11:37:58.116Z,4.90
2023-11-30T11:40:26.643Z,6.27
2023-11-30T11:42:54.756Z,3.60
2023-11-30T11:45:24.440Z,4.90
2023-11-30T11:47:52.637Z,5.00
2023-11-30T11:50:20.683Z,4.90
2023-11-30T11:52:49.922Z,3.20
2023-11-30T11:55:18.034Z,2.83
2023-11-30T11:57:46.553Z,4.07
2023-11-30T12:00:18.016Z,4.30
2023-11-30T12:02:47.805Z,3.73
2023-11-30T12:05:17.446Z,4.40
2023-11-30T12:07:49.571Z,3.20
2023-11-30T12:10:30.518Z,3.47
2023-11-30T12:12:59.259Z,4.17
2023-11-30T12:15:27.657Z,2.70
2023-11-30T12:17:57.298Z,3.60
2023-11-30T12:20:25.321Z,3.93
2023-11-30T12:22:53.350Z,3.53
2023-11-30T12:25:21.406Z,3.57
2023-11-30T12:27:49.473Z,4.27
2023-11-30T12:30:17.608Z,4.33
2023-11-30T12:32:45.701Z,3.97
2023-11-30T12:35:16.616Z,2.93
2023-11-30T12:37:44.746Z,2.43
2023-11-30T12:40:14.912Z,4.20
2023-11-30T12:42:44.181Z,3.80
2023-11-30T12:45:12.501Z,4.33
2023-11-30T12:47:41.629Z,4.00
2023-11-30T12:50:11.334Z,3.80
2023-11-30T12:52:40.773Z,3.17
2023-11-30T12:55:09.921Z,4.10
2023-11-30T12:57:40.472Z,4.30
2023-11-30T13:00:10.872Z,4.40
2023-11-30T13:02:39.141Z,4.53
2023-11-30T13:05:07.344Z,3.13
2023-11-30T13:07:35.403Z,4.63
2023-11-30T13:10:05.733Z,4.07
2023-11-30T13:12:33.833Z,4.20
2023-11-30T13:15:01.909Z,3.67
2023-11-30T13:17:30.069Z,4.07
2023-11-30T13:19:58.191Z,4.03
2023-11-30T13:22:26.244Z,4.23
2023-11-30T13:24:54.431Z,4.00
2023-11-30T13:27:23.864Z,4.07
2023-11-30T13:29:51.912Z,3.40
2023-11-30T13:32:20.148Z,3.10
2023-11-30T13:34:48.247Z,4.03
2023-11-30T13:37:16.403Z,4.50
2023-11-30T13:39:44.904Z,4.90
2023-11-30T13:42:12.901Z,4.77
2023-11-30T13:44:42.349Z,4.13
2023-11-30T13:47:11.102Z,3.53
2023-11-30T13:49:39.526Z,4.00
2023-11-30T13:52:08.594Z,3.90
2023-11-30T13:54:38.401Z,4.87
2023-11-30T13:57:09.617Z,3.40
2023-11-30T13:59:37.635Z,3.90
2023-11-30T14:02:08.145Z,3.27
2023-11-30T14:04:36.279Z,3.83
2023-11-30T14:07:05.174Z,3.57
2023-11-30T14:09:33.426Z,2.93
2023-11-30T14:12:01.667Z,2.73
2023-11-30T14:14:29.661Z,2.33
2023-11-30T14:16:57.754Z,2.97
2023-11-30T14:19:27.118Z,2.43
2023-11-30T14:21:55.398Z,2.00
2023-11-30T14:24:23.476Z,2.10
2023-11-30T14:26:51.607Z,2.20
2023-11-30T14:29:19.706Z,1.97
2023-11-30T14:31:48.684Z,2.93
2023-11-30T14:34:16.802Z,2.63
2023-11-30T14:36:46.267Z,2.90
2023-11-30T14:39:14.311Z,1.80
2023-11-30T14:41:42.406Z,2.67
2023-11-30T14:44:11.433Z,3.73
2023-11-30T14:46:39.869Z,3.93
2023-11-30T14:49:08.414Z,4.70
2023-11-30T14:51:36.694Z,3.50
2023-11-30T14:54:07.313Z,5.03
2023-11-30T14:56:35.393Z,2.57
2023-11-30T14:59:05.088Z,3.07
2023-11-30T15:01:33.246Z,3.10
2023-11-30T15:04:01.801Z,3.30
2023-11-30T15:06:29.928Z,3.40
2023-11-30T15:08:57.941Z,3.00
2023-11-30T15:11:27.463Z,3.30
2023-11-30T15:13:55.523Z,2.90
2023-11-30T15:16:23.642Z,3.00
2023-11-30T15:18:52.051Z,2.50
2023-11-30T15:21:20.282Z,2.70
2023-11-30T15:23:48.457Z,5.57
2023-11-30T15:26:16.639Z,1.73
2023-11-30T15:28:46.132Z,2.53
2023-11-30T15:31:14.210Z,1.97
2023-11-30T15:33:42.346Z,2.53
2023-11-30T15:36:11.153Z,2.00
2023-11-30T15:38:39.201Z,2.30
2023-11-30T15:41:07.421Z,1.60
2023-11-30T15:43:35.701Z,3.27
2023-11-30T15:46:06.663Z,1.70
2023-11-30T15:48:34.884Z,1.87
2023-11-30T15:51:03.866Z,1.60
2023-11-30T15:53:31.941Z,1.97
2023-11-30T15:55:59.945Z,2.37
2023-11-30T15:58:29.126Z,2.70
2023-11-30T16:01:00.071Z,2.27
2023-11-30T16:03:29.713Z,2.30
2023-11-30T16:05:57.876Z,2.50
2023-11-30T16:08:25.948Z,2.27
2023-11-30T16:10:53.988Z,2.47
2023-11-30T16:13:23.189Z,3.10
2023-11-30T16:15:52.313Z,1.97
2023-11-30T16:18:20.638Z,2.90
2023-11-30T16:20:50.081Z,2.30
2023-11-30T16:23:18.153Z,2.53
2023-11-30T16:25:46.262Z,2.83
2023-11-30T16:28:14.359Z,1.83
2023-11-30T16:30:42.517Z,2.60
2023-11-30T16:33:10.680Z,2.53
2023-11-30T16:35:38.924Z,3.17
2023-11-30T16:38:08.343Z,3.63
2023-11-30T16:40:36.486Z,3.43
2023-11-30T16:43:05.116Z,2.13
2023-11-30T16:45:33.116Z,3.10
2023-11-30T16:48:01.175Z,2.93
2023-11-30T16:50:29.250Z,2.80
2023-11-30T16:52:59.002Z,2.53
2023-11-30T16:55:28.457Z,2.63
2023-11-30T16:57:56.930Z,2.70
2023-11-30T17:00:25.506Z,2.80
2023-11-30T17:02:54.850Z,2.07
2023-11-30T17:05:22.937Z,2.70
2023-11-30T17:07:51.164Z,2.40
2023-11-30T17:10:19.161Z,2.83
2023-11-30T17:12:48.684Z,2.90
2023-11-30T17:15:18.406Z,2.87
2023-11-30T17:17:50.516Z,2.43
2023-11-30T17:20:18.942Z,2.47
2023-11-30T17:22:50.692Z,2.60
2023-11-30T17:25:18.765Z,2.10
2023-11-30T17:27:48.653Z,2.30
2023-11-30T17:30:17.359Z,2.97
2023-11-30T17:32:45.470Z,2.77
2023-11-30T17:35:14.075Z,2.70
2023-11-30T17:37:42.578Z,3.37
2023-11-30T17:40:12.049Z,3.27
2023-11-30T17:42:40.172Z,3.40
2023-11-30T17:45:11.203Z,3.03
2023-11-30T17:47:40.221Z,2.63
2023-11-30T17:50:09.342Z,2.50
2023-11-30T17:52:37.323Z,2.83
2023-11-30T17:55:05.685Z,4.63
2023-11-30T17:57:34.288Z,2.90
2023-11-30T18:00:02.362Z,3.00
2023-11-30T18:02:31.826Z,2.87
2023-11-30T18:04:59.857Z,2.80
2023-11-30T18:07:27.988Z,2.87
2023-11-30T18:09:56.153Z,2.23
2023-11-30T18:12:25.673Z,2.40
2023-11-30T18:14:53.715Z,2.53
2023-11-30T18:17:21.771Z,1.97
2023-11-30T18:19:51.226Z,2.80
2023-11-30T18:22:19.374Z,3.90
2023-11-30T18:24:47.432Z,2.20
2023-11-30T18:27:15.469Z,2.87
2023-11-30T18:29:43.626Z,3.23
2023-11-30T18:32:12.983Z,5.10
2023-11-30T18:34:41.388Z,8.67
2023-11-30T18:37:10.991Z,13.07
2023-11-30T18:39:39.090Z,6.33
2023-11-30T18:42:07.214Z,6.93
2023-11-30T18:44:35.213Z,5.37
2023-11-30T18:47:04.151Z,3.73
2023-11-30T18:49:33.900Z,5.10
2023-11-30T18:52:01.982Z,3.90
2023-11-30T18:54:31.675Z,4.00
2023-11-30T18:56:59.765Z,33.03
2023-11-30T18:59:28.859Z,10.63
2023-11-30T19:01:57.215Z,24.50
2023-11-30T19:04:25.579Z,12.97
2023-11-30T19:06:53.670Z,13.87
2023-11-30T19:09:22.482Z,5.43
2023-11-30T19:11:52.438Z,6.30
2023-11-30T19:14:21.125Z,5.03
2023-11-30T19:16:49.524Z,6.37
2023-11-30T19:19:17.601Z,4.80
2023-11-30T19:21:45.795Z,3.57
2023-11-30T19:24:16.235Z,5.43
2023-11-30T19:26:45.043Z,2.97
2023-11-30T19:29:15.301Z,3.43
2023-11-30T19:31:43.469Z,3.87
2023-11-30T19:34:13.136Z,5.23
2023-11-30T19:36:41.549Z,4.73
2023-11-30T19:39:09.734Z,3.80
2023-11-30T19:41:37.782Z,3.50
2023-11-30T19:44:06.083Z,3.20
2023-11-30T19:46:35.612Z,3.10
2023-11-30T19:49:03.798Z,2.87
2023-11-30T19:51:32.974Z,3.30
2023-11-30T19:54:01.045Z,2.93
2023-11-30T19:56:29.864Z,3.50
2023-11-30T19:58:58.012Z,3.80
2023-11-30T20:01:26.158Z,4.27
2023-11-30T20:03:55.707Z,4.80
2023-11-30T20:06:23.893Z,3.67
2023-11-30T20:08:51.989Z,3.70
2023-11-30T20:11:22.643Z,3.77
2023-11-30T20:13:51.029Z,6.50
2023-11-30T20:16:19.123Z,3.47
2023-11-30T20:18:47.279Z,3.60
2023-11-30T20:21:22.066Z,3.63
2023-11-30T20:23:50.395Z,4.20
2023-11-30T20:26:19.579Z,3.30
2023-11-30T20:28:48.100Z,3.83
2023-11-30T20:31:16.587Z,3.77
2023-11-30T20:33:47.107Z,6.27
2023-11-30T20:36:19.383Z,3.80
2023-11-30T20:38:48.970Z,4.30
2023-11-30T20:41:18.631Z,4.07
2023-11-30T20:43:48.963Z,3.30
2023-11-30T20:46:19.460Z,3.80
2023-11-30T20:48:49.652Z,3.57
2023-11-30T20:51:21.002Z,3.43
2023-11-30T20:53:52.943Z,3.30
2023-11-30T20:56:25.893Z,3.77
2023-11-30T20:58:53.971Z,3.23
2023-11-30T21:01:23.942Z,3.43
2023-11-30T21:03:52.473Z,3.50
2023-11-30T21:06:20.878Z,4.23
2023-11-30T21:08:51.784Z,3.87
2023-11-30T21:11:19.965Z,3.90
2023-11-30T21:13:49.323Z,3.80
2023-11-30T21:16:20.422Z,3.67
2023-11-30T21:18:49.082Z,3.60
2023-11-30T21:21:17.995Z,4.03
2023-11-30T21:23:47.408Z,3.60
2023-11-30T21:26:16.992Z,4.33
2023-11-30T21:28:44.974Z,4.10
2023-11-30T21:31:13.429Z,4.03
2023-11-30T21:33:41.616Z,4.47
2023-11-30T21:36:13.806Z,3.73
2023-11-30T21:38:41.832Z,4.60
2023-11-30T21:41:09.877Z,3.93
2023-11-30T21:43:39.448Z,4.50
2023-11-30T21:46:08.167Z,4.13
2023-11-30T21:48:36.515Z,4.83
2023-11-30T21:51:04.772Z,4.50
2023-11-30T21:53:35.957Z,3.83
2023-11-30T21:56:04.040Z,4.37
2023-11-30T21:58:33.830Z,4.90
2023-11-30T22:01:05.973Z,4.97
2023-11-30T22:03:34.614Z,4.43
2023-11-30T22:06:02.835Z,4.53
2023-11-30T22:08:30.919Z,4.63
2023-11-30T22:10:58.973Z,4.47
2023-11-30T22:13:27.056Z,4.60
2023-11-30T22:16:00.065Z,4.67
2023-11-30T22:18:33.727Z,4.53
2023-11-30T22:21:04.126Z,4.43
2023-11-30T22:23:33.666Z,4.27
2023-11-30T22:26:04.419Z,4.67
2023-11-30T22:28:32.867Z,5.23
2023-11-30T22:31:01.135Z,4.87
2023-11-30T22:33:29.372Z,4.40
2023-11-30T22:35:58.896Z,5.03
2023-11-30T22:38:30.961Z,4.50
2023-11-30T22:41:00.838Z,4.20
2023-11-30T22:43:28.964Z,3.83
2023-11-30T22:45:57.021Z,4.43
2023-11-30T22:48:26.133Z,4.53
2023-11-30T22:50:54.329Z,4.90
2023-11-30T22:53:23.982Z,5.03
2023-11-30T22:55:52.171Z,5.00
2023-11-30T22:58:20.484Z,4.30
2023-11-30T23:00:48.981Z,4.77
2023-11-30T23:03:17.282Z,4.17
2023-11-30T23:05:45.729Z,4.57
2023-11-30T23:08:13.833Z,4.20
2023-11-30T23:10:43.314Z,4.50
2023-11-30T23:13:12.811Z,5.10
2023-11-30T23:15:40.965Z,4.47
2023-11-30T23:18:11.249Z,5.50
2023-11-30T23:20:39.646Z,4.10
2023-11-30T23:23:07.716Z,5.27
2023-11-30T23:25:35.762Z,5.23
2023-11-30T23:28:05.989Z,4.80
2023-11-30T23:30:34.102Z,3.67
2023-11-30T23:33:02.412Z,4.80
2023-11-30T23:35:30.489Z,5.33
2023-11-30T23:37:58.519Z,4.93
2023-11-30T23:40:26.501Z,5.40
2023-11-30T23:42:54.762Z,5.30
2023-11-30T23:45:24.197Z,5.17
2023-11-30T23:47:52.246Z,4.57
2023-11-30T23:50:20.346Z,4.93
2023-11-30T23:52:48.509Z,5.30
2023-11-30T23:55:16.831Z,5.27
2023-11-30T23:57:46.215Z,5.00
